Time;durP1;ratioP1;P1;durP2;ratioP2;P2;SDS_P1;SDS_P2;PMS_P1;PMS_P2;Temp;Humidity;BMP_temperature;BMP_pressure;BME280_temperature;BME280_humidity;BME280_pressure;Samples;Min_cycle;Max_cycle;Signal;HPM_P1;HPM_P2
2023/04/14 00:00:26;;;;;;;;;;;14.10;67.20;;;;;;5072396;28;19920;-78
2023/04/14 00:02:52;;;;;;;;;;;14.10;67.40;;;;;;5072566;28;20281;-78
2023/04/14 00:05:18;;;;;;;;;;;14.10;66.90;;;;;;5079035;28;19912;-78
2023/04/14 00:07:44;;;;;;;;;;;14.10;67.30;;;;;;5092580;28;20022;-78
2023/04/14 00:10:10;;;;;;;;;;;14.10;67.40;;;;;;5092772;28;20282;-78
2023/04/14 00:12:35;;;;;;;;;;;14.10;68.00;;;;;;5095231;28;19911;-78
2023/04/14 00:15:01;;;;;;;;;;;14.20;66.90;;;;;;5096626;28;20011;-79
2023/04/14 00:17:27;;;;;;;;;;;14.20;66.90;;;;;;5096709;28;19920;-78
2023/04/14 00:19:53;;;;;;;;;;;14.30;67.60;;;;;;5096940;28;20003;-78
2023/04/14 00:22:20;;;;;;;;;;;14.30;66.20;;;;;;5096454;28;19963;-78
2023/04/14 00:24:46;;;;;;;;;;;14.30;66.70;;;;;;5096925;28;19915;-78
2023/04/14 00:27:12;;;;;;;;;;;14.50;64.30;;;;;;5096921;28;19927;-77
2023/04/14 00:29:38;;;;;;;;;;;14.70;64.20;;;;;;5078001;28;19912;-77
2023/04/14 00:32:04;;;;;;;;;;;14.90;63.40;;;;;;5096867;28;19919;-78
2023/04/14 00:34:31;;;;;;;;;;;15.10;62.50;;;;;;5096644;28;19959;-77
2023/04/14 00:36:57;;;;;;;;;;;15.30;61.20;;;;;;5096481;28;19922;-78
2023/04/14 00:39:22;;;;;;;;;;;15.40;61.90;;;;;;5096457;28;20006;-77
2023/04/14 00:41:48;;;;;;;;;;;15.40;61.30;;;;;;5096462;28;19916;-78
2023/04/14 00:44:14;;;;;;;;;;;15.50;61.20;;;;;;5096140;28;19916;-77
2023/04/14 00:46:41;;;;;;;;;;;15.60;61.30;;;;;;5096291;28;20433;-77
2023/04/14 00:49:07;;;;;;;;;;;15.60;61.70;;;;;;5077954;28;19977;-78
2023/04/14 00:51:33;;;;;;;;;;;15.70;60.80;;;;;;5077612;28;19966;-78
2023/04/14 00:53:59;;;;;;;;;;;15.70;60.20;;;;;;5096330;28;19912;-78
2023/04/14 00:56:25;;;;;;;;;;;15.70;60.40;;;;;;5054166;28;19970;-77
2023/04/14 00:58:51;;;;;;;;;;;15.80;60.00;;;;;;5055769;28;20201;-78
2023/04/14 01:01:17;;;;;;;;;;;15.90;59.80;;;;;;5055608;28;19968;-78
2023/04/14 01:03:43;;;;;;;;;;;15.90;60.30;;;;;;5087700;28;19967;-78
2023/04/14 01:06:09;;;;;;;;;;;16.00;60.10;;;;;;5042098;28;19951;-78
2023/04/14 01:08:35;;;;;;;;;;;16.00;60.40;;;;;;5035597;28;19924;-78
2023/04/14 01:11:07;;;;;;;;;;;16.00;60.00;;;;;;5035570;28;19934;-78
2023/04/14 01:13:52;;;;;;;;;;;16.10;60.30;;;;;;5035654;28;19917;-77
2023/04/14 01:16:21;;;;;;;;;;;16.20;59.60;;;;;;5050701;28;19913;-77
2023/04/14 01:18:53;;;;;;;;;;;16.10;59.70;;;;;;5050725;28;19910;-77
2023/04/14 01:21:25;;;;;;;;;;;16.20;58.80;;;;;;5050692;28;19921;-78
2023/04/14 01:24:01;;;;;;;;;;;16.20;59.20;;;;;;5050409;28;19966;-78
2023/04/14 01:26:28;;;;;;;;;;;16.30;58.80;;;;;;5050580;28;19944;-78
2023/04/14 01:29:03;;;;;;;;;;;16.20;61.10;;;;;;5050688;28;19919;-78
2023/04/14 01:31:39;;;;;;;;;;;16.20;61.90;;;;;;5050490;28;19932;-78
2023/04/14 01:34:05;;;;;;;;;;;16.10;62.90;;;;;;5035135;28;20203;-78
2023/04/14 01:36:38;;;;;;;;;;;16.00;64.00;;;;;;5050375;28;20517;-78
2023/04/14 01:39:07;;;;;;;;;;;16.00;64.80;;;;;;5035345;28;19923;-78
2023/04/14 01:41:33;;;;;;;;;;;15.80;66.50;;;;;;5050198;28;20044;-78
2023/04/14 01:44:00;;;;;;;;;;;15.70;68.70;;;;;;5033849;28;20026;-77
2023/04/14 01:46:26;;;;;;;;;;;15.80;61.70;;;;;;5050310;28;19936;-78
2023/04/14 01:48:52;;;;;;;;;;;15.80;62.50;;;;;;5034863;28;19917;-78
2023/04/14 01:51:18;;;;;;;;;;;15.70;64.70;;;;;;5066895;28;19920;-78
2023/04/14 01:53:45;;;;;;;;;;;15.70;67.90;;;;;;5034781;28;19917;-77
2023/04/14 01:56:11;;;;;;;;;;;15.40;69.60;;;;;;5084771;28;19924;-77
2023/04/14 01:58:38;;;;;;;;;;;15.30;70.20;;;;;;5054878;28;20381;-77
2023/04/14 02:01:06;;;;;;;;;;;15.20;71.80;;;;;;5054586;28;19916;-77
2023/04/14 02:03:33;;;;;;;;;;;15.10;72.30;;;;;;5054521;28;19912;-77
2023/04/14 02:06:01;;;;;;;;;;;15.00;72.80;;;;;;5066722;28;19916;-77
2023/04/14 02:08:30;;;;;;;;;;;14.80;74.30;;;;;;5106486;28;19920;-77
2023/04/14 02:10:56;;;;;;;;;;;14.60;75.80;;;;;;5107017;28;19919;-77
2023/04/14 02:13:22;;;;;;;;;;;14.40;77.70;;;;;;5074481;28;19916;-76
2023/04/14 02:15:50;;;;;;;;;;;14.30;77.00;;;;;;5072952;28;20436;-77
2023/04/14 02:18:18;;;;;;;;;;;14.20;78.20;;;;;;5106448;28;19912;-77
2023/04/14 02:20:46;;;;;;;;;;;14.10;80.50;;;;;;5072794;28;19912;-77
2023/04/14 02:23:13;;;;;;;;;;;14.00;82.50;;;;;;5073990;28;19979;-77
2023/04/14 02:25:40;;;;;;;;;;;13.90;85.70;;;;;;5074244;28;19916;-77
2023/04/14 02:28:09;;;;;;;;;;;13.80;89.50;;;;;;5074237;28;19916;-78
2023/04/14 02:30:40;;;;;;;;;;;13.70;92.70;;;;;;5073989;28;20194;-78
2023/04/14 02:33:10;;;;;;;;;;;13.70;95.00;;;;;;5074196;28;19920;-78
2023/04/14 02:35:55;;;;;;;;;;;13.50;99.90;;;;;;5071857;28;19917;-79
2023/04/14 02:38:24;;;;;;;;;;;13.40;99.90;;;;;;5072250;28;19923;-79
2023/04/14 02:40:50;;;;;;;;;;;13.20;99.90;;;;;;5073987;28;19913;-79
2023/04/14 02:43:23;;;;;;;;;;;13.00;99.90;;;;;;5073709;28;19916;-81
2023/04/14 02:45:50;;;;;;;;;;;12.70;99.90;;;;;;5073835;28;20186;-80
2023/04/14 02:48:17;;;;;;;;;;;12.60;99.90;;;;;;5073697;28;19920;-81
2023/04/14 02:50:46;;;;;;;;;;;12.50;99.90;;;;;;5106247;28;19916;-80
2023/04/14 02:53:20;;;;;;;;;;;12.40;99.90;;;;;;5071892;28;19917;-80
2023/04/14 02:55:48;;;;;;;;;;;12.30;99.90;;;;;;5071961;28;20377;-79
2023/04/14 02:58:15;;;;;;;;;;;12.20;99.90;;;;;;5071910;28;19912;-78
2023/04/14 03:00:41;;;;;;;;;;;12.10;99.90;;;;;;5072842;28;19923;-75
2023/04/14 03:03:08;;;;;;;;;;;12.10;99.90;;;;;;5106447;28;19912;-78
2023/04/14 03:05:36;;;;;;;;;;;11.90;99.90;;;;;;5062941;28;19912;-77
2023/04/14 03:08:09;;;;;;;;;;;11.80;99.90;;;;;;5051792;28;19920;-77
2023/04/14 03:10:37;;;;;;;;;;;11.80;99.90;;;;;;5052003;28;20347;-76
2023/04/14 03:13:03;;;;;;;;;;;11.80;99.90;;;;;;5051865;28;19909;-78
2023/04/14 03:15:30;;;;;;;;;;;11.70;99.90;;;;;;5051713;28;20059;-77
2023/04/14 03:17:57;;;;;;;;;;;11.60;99.90;;;;;;5051919;28;20371;-76
2023/04/14 03:20:24;;;;;;;;;;;11.60;99.90;;;;;;5068306;28;19924;-74
2023/04/14 03:23:05;;;;;;;;;;;11.50;99.90;;;;;;5051949;28;19917;-76
2023/04/14 03:25:36;;;;;;;;;;;11.40;99.90;;;;;;5051814;28;19935;-76
2023/04/14 03:28:08;;;;;;;;;;;11.40;99.90;;;;;;5051627;28;20031;-76
2023/04/14 03:30:35;;;;;;;;;;;11.30;99.90;;;;;;5051844;28;19923;-76
2023/04/14 03:33:05;;;;;;;;;;;11.30;99.90;;;;;;5051649;28;19917;-77
2023/04/14 03:35:31;;;;;;;;;;;11.20;99.90;;;;;;5052922;28;19917;-76
2023/04/14 03:37:58;;;;;;;;;;;11.10;99.90;;;;;;5052945;28;19919;-77
2023/04/14 03:40:30;;;;;;;;;;;11.10;99.90;;;;;;5051250;28;20051;-76
2023/04/14 03:42:57;;;;;;;;;;;11.10;99.90;;;;;;5051455;28;19956;-77
2023/04/14 03:45:25;;;;;;;;;;;11.00;99.90;;;;;;5052521;28;19917;-78
2023/04/14 03:47:54;;;;;;;;;;;11.00;99.90;;;;;;5051363;28;20011;-77
2023/04/14 03:50:21;;;;;;;;;;;11.10;99.90;;;;;;5067925;28;19924;-77
2023/04/14 03:52:51;;;;;;;;;;;11.10;99.90;;;;;;5051603;28;19916;-77
2023/04/14 03:55:17;;;;;;;;;;;11.10;99.90;;;;;;5051005;28;20378;-77
2023/04/14 03:57:45;;;;;;;;;;;11.10;99.90;;;;;;5084938;28;19931;-77
2023/04/14 04:00:14;;;;;;;;;;;11.10;99.90;;;;;;5051121;28;20431;-77
2023/04/14 04:02:41;;;;;;;;;;;11.10;99.90;;;;;;5052468;28;19956;-78
2023/04/14 04:05:08;;;;;;;;;;;11.00;99.90;;;;;;5056278;28;19913;-78
2023/04/14 04:07:34;;;;;;;;;;;11.00;99.90;;;;;;5072535;28;20285;-78
2023/04/14 04:10:02;;;;;;;;;;;10.90;99.90;;;;;;5071329;28;19919;-78
2023/04/14 04:12:29;;;;;;;;;;;10.80;99.90;;;;;;5071024;28;19926;-78
2023/04/14 04:14:55;;;;;;;;;;;10.80;99.90;;;;;;5071344;28;19916;-78
2023/04/14 04:17:22;;;;;;;;;;;10.90;99.90;;;;;;5070724;28;19912;-78
2023/04/14 04:19:49;;;;;;;;;;;10.90;99.90;;;;;;5104976;28;19924;-77
2023/04/14 04:22:16;;;;;;;;;;;10.90;99.90;;;;;;5070927;28;19916;-77
2023/04/14 04:24:43;;;;;;;;;;;10.80;99.90;;;;;;5070860;28;20007;-77
2023/04/14 04:27:15;;;;;;;;;;;10.80;99.90;;;;;;5070929;28;19926;-77
2023/04/14 04:29:41;;;;;;;;;;;10.80;99.90;;;;;;5071044;28;19917;-77
2023/04/14 04:32:07;;;;;;;;;;;10.80;99.90;;;;;;5071002;28;19922;-77
2023/04/14 04:34:33;;;;;;;;;;;10.80;99.90;;;;;;5072407;28;19919;-77
2023/04/14 04:37:01;;;;;;;;;;;10.90;99.90;;;;;;5070856;28;20365;-78
2023/04/14 04:39:28;;;;;;;;;;;10.90;99.90;;;;;;5104268;28;19916;-77
2023/04/14 04:42:04;;;;;;;;;;;10.80;99.90;;;;;;5070749;28;20439;-77
2023/04/14 04:44:30;;;;;;;;;;;10.70;99.90;;;;;;5070721;28;19916;-77
2023/04/14 04:46:57;;;;;;;;;;;10.80;99.90;;;;;;5070988;28;19920;-77
2023/04/14 04:49:26;;;;;;;;;;;10.80;99.90;;;;;;5070568;28;20003;-77
2023/04/14 04:51:55;;;;;;;;;;;10.90;99.90;;;;;;5070722;28;19999;-77
2023/04/14 04:54:21;;;;;;;;;;;11.00;99.90;;;;;;5070553;28;19929;-77
2023/04/14 04:56:47;;;;;;;;;;;11.00;99.90;;;;;;5072144;28;20007;-77
2023/04/14 04:59:12;;;;;;;;;;;10.90;99.90;;;;;;5075416;28;19970;-77
2023/04/14 05:01:38;;;;;;;;;;;10.80;99.90;;;;;;5076014;28;19916;-77
2023/04/14 05:04:04;;;;;;;;;;;10.80;99.90;;;;;;5075797;28;19923;-77
2023/04/14 05:06:33;;;;;;;;;;;10.70;99.90;;;;;;5058712;28;19971;-77
2023/04/14 05:08:59;;;;;;;;;;;10.70;99.90;;;;;;5055340;28;19916;-77
2023/04/14 05:11:25;;;;;;;;;;;10.70;99.90;;;;;;5055155;28;19931;-77
2023/04/14 05:13:51;;;;;;;;;;;10.70;99.90;;;;;;5055499;28;20007;-77
2023/04/14 05:16:18;;;;;;;;;;;10.60;99.90;;;;;;5055246;28;19966;-77
2023/04/14 05:18:44;;;;;;;;;;;10.90;99.90;;;;;;5055762;28;19920;-78
2023/04/14 05:21:14;;;;;;;;;;;10.90;99.90;;;;;;5055008;28;20066;-77
2023/04/14 05:23:41;;;;;;;;;;;10.80;99.90;;;;;;5055297;28;20516;-76
2023/04/14 05:26:07;;;;;;;;;;;10.80;99.90;;;;;;5038151;28;19920;-77
2023/04/14 05:28:33;;;;;;;;;;;10.80;99.90;;;;;;5036611;28;20841;-77
2023/04/14 05:30:59;;;;;;;;;;;10.80;99.90;;;;;;5037234;28;19917;-77
2023/04/14 05:33:25;;;;;;;;;;;10.80;99.90;;;;;;5037281;28;19928;-77
2023/04/14 05:35:51;;;;;;;;;;;10.80;99.90;;;;;;5037599;28;19923;-77
2023/04/14 05:38:17;;;;;;;;;;;10.80;99.90;;;;;;5050204;28;20425;-77
2023/04/14 05:40:44;;;;;;;;;;;10.80;99.90;;;;;;5052193;28;19981;-77
2023/04/14 05:43:09;;;;;;;;;;;10.70;99.90;;;;;;5051904;28;19917;-77
2023/04/14 05:45:35;;;;;;;;;;;10.70;99.90;;;;;;5052327;28;20320;-77
2023/04/14 05:48:01;;;;;;;;;;;10.70;99.90;;;;;;5051074;28;19916;-77
2023/04/14 05:50:27;;;;;;;;;;;10.60;99.90;;;;;;5050761;28;19921;-77
2023/04/14 05:52:53;;;;;;;;;;;10.70;99.90;;;;;;5052138;28;20358;-78
2023/04/14 05:55:19;;;;;;;;;;;10.70;99.90;;;;;;5062519;28;19967;-78
2023/04/14 05:57:45;;;;;;;;;;;10.70;99.90;;;;;;5071828;28;19977;-78
2023/04/14 06:00:11;;;;;;;;;;;10.90;99.90;;;;;;5069964;28;20331;-78
2023/04/14 06:02:43;;;;;;;;;;;10.90;99.90;;;;;;5060140;28;20008;-78
2023/04/14 06:05:11;;;;;;;;;;;10.80;99.90;;;;;;5076419;28;21970;-78
2023/04/14 06:07:37;;;;;;;;;;;10.70;99.90;;;;;;5077800;28;19927;-78
2023/04/14 06:10:04;;;;;;;;;;;10.70;99.90;;;;;;5075978;28;19916;-78
2023/04/14 06:12:29;;;;;;;;;;;10.60;99.90;;;;;;5075214;28;19927;-78
2023/04/14 06:14:55;;;;;;;;;;;10.70;99.90;;;;;;5070483;28;19920;-78
2023/04/14 06:17:21;;;;;;;;;;;10.70;99.90;;;;;;5076720;28;19916;-78
2023/04/14 06:19:47;;;;;;;;;;;10.70;99.90;;;;;;5077608;28;19955;-78
2023/04/14 06:22:18;;;;;;;;;;;10.70;99.90;;;;;;5076500;28;20292;-77
2023/04/14 06:24:44;;;;;;;;;;;10.70;99.90;;;;;;5072857;28;20444;-77
2023/04/14 06:27:10;;;;;;;;;;;10.60;99.90;;;;;;5071556;28;19965;-78
2023/04/14 06:29:36;;;;;;;;;;;10.70;99.90;;;;;;5071186;28;20429;-78
2023/04/14 06:32:07;;;;;;;;;;;10.70;99.90;;;;;;5071001;28;20034;-78
2023/04/14 06:34:33;;;;;;;;;;;10.70;99.90;;;;;;5070011;28;19916;-78
2023/04/14 06:37:00;;;;;;;;;;;10.80;99.90;;;;;;5070332;28;19920;-77
2023/04/14 06:39:30;;;;;;;;;;;10.80;99.90;;;;;;5070496;28;19920;-79
2023/04/14 06:41:56;;;;;;;;;;;10.80;99.90;;;;;;5071310;28;19916;-79
2023/04/14 06:44:22;;;;;;;;;;;10.80;99.90;;;;;;5068067;28;20475;-77
2023/04/14 06:46:50;;;;;;;;;;;10.90;99.90;;;;;;5067219;28;19916;-73
2023/04/14 06:49:18;;;;;;;;;;;11.00;99.90;;;;;;5070879;28;20400;-72
2023/04/14 06:51:44;;;;;;;;;;;11.00;99.90;;;;;;5071017;28;20255;-72
2023/04/14 06:54:10;;;;;;;;;;;11.10;99.90;;;;;;5070709;28;20486;-72
2023/04/14 06:56:36;;;;;;;;;;;11.10;99.90;;;;;;5070683;28;19912;-72
2023/04/14 06:59:01;;;;;;;;;;;11.10;99.90;;;;;;5070071;28;19955;-72
2023/04/14 07:01:30;;;;;;;;;;;11.20;99.90;;;;;;5068173;28;20305;-72
2023/04/14 07:03:56;;;;;;;;;;;11.30;99.90;;;;;;5067576;28;19916;-72
2023/04/14 07:06:23;;;;;;;;;;;11.30;99.90;;;;;;5067968;28;19923;-72
2023/04/14 07:08:49;;;;;;;;;;;11.30;99.90;;;;;;5067326;28;19975;-72
2023/04/14 07:11:15;;;;;;;;;;;11.40;99.90;;;;;;5070200;28;19919;-72
2023/04/14 07:13:41;;;;;;;;;;;11.30;99.90;;;;;;5070061;28;19916;-71
2023/04/14 07:16:07;;;;;;;;;;;11.40;99.90;;;;;;5070372;28;19919;-72
2023/04/14 07:18:33;;;;;;;;;;;11.30;99.90;;;;;;5068956;28;19923;-72
2023/04/14 07:21:02;;;;;;;;;;;11.30;99.90;;;;;;5051730;28;19965;-78
2023/04/14 07:23:28;;;;;;;;;;;11.30;99.90;;;;;;5067919;28;20348;-77
2023/04/14 07:25:57;;;;;;;;;;;11.30;99.90;;;;;;5074805;28;19916;-78
2023/04/14 07:28:24;;;;;;;;;;;11.20;99.90;;;;;;5071788;28;20324;-78
2023/04/14 07:30:50;;;;;;;;;;;11.30;99.90;;;;;;5075788;28;20061;-78
2023/04/14 07:33:20;;;;;;;;;;;11.30;99.90;;;;;;5075729;28;19979;-78
2023/04/14 07:35:53;;;;;;;;;;;11.40;99.90;;;;;;5077351;28;19943;-78
2023/04/14 07:38:19;;;;;;;;;;;11.40;99.90;;;;;;5077002;28;19916;-78
2023/04/14 07:40:44;;;;;;;;;;;11.40;99.90;;;;;;5076178;28;19945;-79
2023/04/14 07:43:10;;;;;;;;;;;11.40;99.90;;;;;;5078516;28;20405;-79
2023/04/14 07:45:36;;;;;;;;;;;11.30;99.90;;;;;;5078572;28;20691;-78
2023/04/14 07:48:02;;;;;;;;;;;11.40;99.90;;;;;;5076786;28;19920;-78
2023/04/14 07:50:27;;;;;;;;;;;11.50;99.90;;;;;;5077394;28;19912;-79
2023/04/14 07:52:53;;;;;;;;;;;11.50;99.90;;;;;;5078185;28;19916;-78
2023/04/14 07:55:19;;;;;;;;;;;11.60;99.90;;;;;;5078980;28;19981;-79
2023/04/14 07:57:45;;;;;;;;;;;11.50;99.90;;;;;;5076731;28;20753;-79
2023/04/14 08:00:11;;;;;;;;;;;11.60;99.90;;;;;;5076655;28;19916;-80
2023/04/14 08:02:40;;;;;;;;;;;11.70;99.90;;;;;;5073508;28;19927;-74
2023/04/14 08:05:06;;;;;;;;;;;11.60;99.90;;;;;;5074641;28;19916;-73
2023/04/14 08:07:32;;;;;;;;;;;11.50;99.90;;;;;;5073999;28;20438;-73
2023/04/14 08:09:58;;;;;;;;;;;11.60;99.90;;;;;;5073621;28;19966;-73
2023/04/14 08:12:24;;;;;;;;;;;11.60;99.90;;;;;;5074304;28;19951;-73
2023/04/14 08:14:51;;;;;;;;;;;11.60;99.90;;;;;;5074334;28;20459;-73
2023/04/14 08:17:17;;;;;;;;;;;11.70;99.90;;;;;;5073365;28;19923;-73
2023/04/14 08:19:42;;;;;;;;;;;11.70;99.90;;;;;;5073235;28;20381;-74
2023/04/14 08:22:08;;;;;;;;;;;11.70;99.90;;;;;;5070272;28;19923;-75
2023/04/14 08:24:34;;;;;;;;;;;11.70;99.90;;;;;;5069259;28;20530;-74
2023/04/14 08:27:01;;;;;;;;;;;11.90;99.90;;;;;;5069451;28;19924;-76
2023/04/14 08:29:27;;;;;;;;;;;11.90;99.90;;;;;;5071042;28;20023;-75
2023/04/14 08:31:52;;;;;;;;;;;11.90;99.90;;;;;;5053885;28;19916;-77
2023/04/14 08:34:18;;;;;;;;;;;12.00;99.90;;;;;;5075228;28;19923;-80
2023/04/14 08:36:46;;;;;;;;;;;12.10;99.90;;;;;;5073420;28;19912;-81
2023/04/14 08:39:12;;;;;;;;;;;12.10;99.90;;;;;;5076059;28;19916;-68
2023/04/14 08:41:38;;;;;;;;;;;12.10;99.90;;;;;;5074075;28;20727;-66
2023/04/14 08:44:04;;;;;;;;;;;12.10;99.90;;;;;;5075186;28;19947;-67
2023/04/14 08:46:30;;;;;;;;;;;12.20;99.90;;;;;;5072085;28;20715;-67
2023/04/14 08:49:03;;;;;;;;;;;12.20;99.90;;;;;;5072403;28;19920;-67
2023/04/14 08:51:37;;;;;;;;;;;12.20;99.90;;;;;;5074585;28;20293;-67
2023/04/14 08:54:06;;;;;;;;;;;12.20;99.90;;;;;;5074100;28;20800;-67
2023/04/14 08:56:33;;;;;;;;;;;12.30;99.90;;;;;;5069163;28;19967;-68
2023/04/14 08:59:00;;;;;;;;;;;12.20;99.90;;;;;;5068955;28;19916;-65
2023/04/14 09:01:29;;;;;;;;;;;12.20;99.90;;;;;;5069891;28;19916;-65
2023/04/14 09:03:56;;;;;;;;;;;12.30;99.90;;;;;;5068963;28;20020;-65
2023/04/14 09:06:22;;;;;;;;;;;12.40;99.90;;;;;;5070393;28;20393;-65
2023/04/14 09:08:48;;;;;;;;;;;12.40;99.90;;;;;;5069571;28;20389;-65
2023/04/14 09:11:14;;;;;;;;;;;12.40;99.90;;;;;;5069023;28;19923;-65
2023/04/14 09:13:41;;;;;;;;;;;12.50;99.90;;;;;;5050065;28;20511;-65
2023/04/14 09:16:07;;;;;;;;;;;12.60;99.90;;;;;;5068382;28;20004;-65
2023/04/14 09:18:32;;;;;;;;;;;12.70;99.90;;;;;;5067302;28;19916;-65
2023/04/14 09:20:58;;;;;;;;;;;12.90;99.90;;;;;;5069306;28;19922;-67
2023/04/14 09:23:24;;;;;;;;;;;12.90;99.90;;;;;;5068420;28;19944;-67
2023/04/14 09:25:50;;;;;;;;;;;13.00;99.90;;;;;;5068118;28;20414;-67
2023/04/14 09:28:16;;;;;;;;;;;13.20;99.90;;;;;;5069337;28;19926;-67
2023/04/14 09:30:42;;;;;;;;;;;13.50;99.90;;;;;;5069302;28;20023;-67
2023/04/14 09:33:16;;;;;;;;;;;13.70;99.90;;;;;;5067971;28;19939;-68
2023/04/14 09:35:44;;;;;;;;;;;13.90;99.90;;;;;;5069915;28;20297;-68
2023/04/14 09:38:10;;;;;;;;;;;14.40;99.90;;;;;;5068237;28;19970;-68
2023/04/14 09:40:37;;;;;;;;;;;14.80;99.90;;;;;;5068438;28;20011;-68
2023/04/14 09:43:03;;;;;;;;;;;15.20;99.90;;;;;;5067867;28;19973;-67
2023/04/14 09:45:44;;;;;;;;;;;15.90;99.90;;;;;;5067416;28;20316;-67
2023/04/14 09:48:11;;;;;;;;;;;16.30;99.90;;;;;;5065290;28;19959;-67
2023/04/14 09:50:57;;;;;;;;;;;16.70;99.90;;;;;;5067704;28;20327;-68
2023/04/14 09:53:30;;;;;;;;;;;16.90;97.30;;;;;;5068958;28;19916;-67
2023/04/14 09:55:58;;;;;;;;;;;17.20;98.50;;;;;;5071104;28;20302;-68
2023/04/14 09:58:27;;;;;;;;;;;17.40;92.20;;;;;;5068880;28;19922;-67
2023/04/14 10:00:53;;;;;;;;;;;17.70;91.60;;;;;;5067532;28;20028;-68
2023/04/14 10:03:33;;;;;;;;;;;17.90;89.10;;;;;;5067084;28;20022;-68
2023/04/14 10:06:00;;;;;;;;;;;16.90;81.30;;;;;;5066696;28;19916;-67
2023/04/14 10:08:39;;;;;;;;;;;17.90;79.90;;;;;;5067312;28;19923;-68
2023/04/14 10:11:15;;;;;;;;;;;17.90;70.70;;;;;;5071021;28;20030;-67
2023/04/14 10:13:42;;;;;;;;;;;18.00;71.30;;;;;;5072169;28;19915;-68
2023/04/14 10:16:08;;;;;;;;;;;18.00;66.40;;;;;;5073291;28;20488;-68
2023/04/14 10:18:35;;;;;;;;;;;18.50;69.60;;;;;;5072896;28;20047;-68
2023/04/14 10:21:02;;;;;;;;;;;18.60;67.60;;;;;;5064813;28;20030;-68
2023/04/14 10:23:29;;;;;;;;;;;18.70;68.10;;;;;;5073084;28;19916;-68
2023/04/14 10:25:56;;;;;;;;;;;18.50;64.60;;;;;;5072117;28;19986;-68
2023/04/14 10:28:22;;;;;;;;;;;18.00;66.60;;;;;;5073048;28;20634;-68
2023/04/14 10:30:49;;;;;;;;;;;18.90;69.40;;;;;;5072865;28;19919;-67
2023/04/14 10:33:15;;;;;;;;;;;19.30;63.60;;;;;;5073126;28;19915;-68
2023/04/14 10:35:43;;;;;;;;;;;18.70;64.60;;;;;;5073953;28;19923;-68
2023/04/14 10:38:09;;;;;;;;;;;18.70;67.10;;;;;;5072827;28;19923;-67
2023/04/14 10:40:46;;;;;;;;;;;18.40;65.00;;;;;;5074321;28;19965;-68
2023/04/14 10:43:15;;;;;;;;;;;17.90;68.20;;;;;;5073809;28;19930;-68
2023/04/14 10:45:53;;;;;;;;;;;17.70;64.30;;;;;;5072009;28;19916;-68
2023/04/14 10:48:27;;;;;;;;;;;17.70;65.50;;;;;;5073595;28;19986;-68
2023/04/14 10:51:00;;;;;;;;;;;17.40;68.30;;;;;;5072430;28;19951;-68
2023/04/14 10:53:29;;;;;;;;;;;17.40;67.50;;;;;;5072686;28;19924;-68
2023/04/14 10:55:56;;;;;;;;;;;17.30;66.10;;;;;;5072251;28;20764;-68
2023/04/14 10:58:28;;;;;;;;;;;17.10;65.50;;;;;;5072337;28;19923;-67
2023/04/14 11:00:57;;;;;;;;;;;16.90;69.10;;;;;;5073040;28;20601;-68
2023/04/14 11:03:22;;;;;;;;;;;16.80;78.90;;;;;;5071741;28;20354;-68
2023/04/14 11:05:51;;;;;;;;;;;16.90;82.00;;;;;;5072645;28;19922;-68
2023/04/14 11:08:24;;;;;;;;;;;16.60;78.80;;;;;;5072580;28;19920;-68
2023/04/14 11:10:59;;;;;;;;;;;16.10;78.00;;;;;;5073021;28;19916;-68
2023/04/14 11:13:24;;;;;;;;;;;16.10;88.80;;;;;;5071768;28;19916;-68
2023/04/14 11:15:56;;;;;;;;;;;15.60;88.80;;;;;;5073392;28;20562;-68
2023/04/14 11:18:41;;;;;;;;;;;15.10;90.60;;;;;;5072824;28;20182;-68
2023/04/14 11:21:06;;;;;;;;;;;15.00;91.20;;;;;;5072323;28;19916;-68
2023/04/14 11:23:33;;;;;;;;;;;14.80;91.30;;;;;;5072601;28;19923;-68
2023/04/14 11:25:59;;;;;;;;;;;14.60;85.10;;;;;;5072534;28;19915;-68
2023/04/14 11:28:32;;;;;;;;;;;14.60;92.30;;;;;;5067914;28;19962;-68
2023/04/14 11:30:59;;;;;;;;;;;14.50;93.30;;;;;;5068363;28;19916;-68
2023/04/14 11:33:29;;;;;;;;;;;14.30;94.90;;;;;;5068237;28;19946;-68
2023/04/14 11:35:55;;;;;;;;;;;14.00;98.60;;;;;;5067471;28;20430;-68
2023/04/14 11:38:21;;;;;;;;;;;13.90;99.90;;;;;;5067100;28;19916;-68
2023/04/14 11:40:48;;;;;;;;;;;13.70;99.90;;;;;;5068171;28;20383;-68
2023/04/14 11:43:15;;;;;;;;;;;13.40;99.90;;;;;;5066059;28;19926;-68
2023/04/14 11:45:45;;;;;;;;;;;13.30;99.90;;;;;;5066304;28;20013;-67
2023/04/14 11:48:17;;;;;;;;;;;13.20;99.90;;;;;;5068222;28;20339;-68
2023/04/14 11:51:02;;;;;;;;;;;13.20;99.90;;;;;;5049921;28;19916;-67
2023/04/14 11:53:28;;;;;;;;;;;13.40;99.90;;;;;;5068040;28;20129;-68
2023/04/14 11:55:53;;;;;;;;;;;14.10;99.90;;;;;;5065277;28;19924;-67
2023/04/14 11:58:26;;;;;;;;;;;14.40;99.90;;;;;;5068336;28;20470;-68
2023/04/14 12:00:52;;;;;;;;;;;15.10;99.90;;;;;;5067796;28;19985;-67
2023/04/14 12:03:19;;;;;;;;;;;15.40;98.10;;;;;;5066073;28;19916;-68
2023/04/14 12:05:44;;;;;;;;;;;15.50;99.80;;;;;;5066443;28;20496;-68
2023/04/14 12:08:11;;;;;;;;;;;15.60;99.90;;;;;;5069191;28;19927;-68
2023/04/14 12:10:37;;;;;;;;;;;15.60;98.50;;;;;;5071741;28;20001;-68
2023/04/14 12:13:04;;;;;;;;;;;15.70;95.90;;;;;;5069148;28;19920;-68
2023/04/14 12:15:31;;;;;;;;;;;16.20;99.00;;;;;;5069783;28;19920;-68
2023/04/14 12:17:57;;;;;;;;;;;16.80;98.30;;;;;;5071515;28;20251;-67
2023/04/14 12:20:23;;;;;;;;;;;17.40;96.20;;;;;;5070738;28;19912;-67
2023/04/14 12:22:50;;;;;;;;;;;17.80;95.20;;;;;;5068828;28;19916;-67
2023/04/14 12:25:16;;;;;;;;;;;17.80;91.10;;;;;;5069606;28;19959;-67
2023/04/14 12:27:49;;;;;;;;;;;17.50;86.20;;;;;;5070363;28;20300;-67
2023/04/14 12:30:19;;;;;;;;;;;17.10;90.80;;;;;;5071149;28;20428;-68
2023/04/14 12:32:45;;;;;;;;;;;17.10;85.20;;;;;;5070077;28;19926;-67
2023/04/14 12:35:11;;;;;;;;;;;17.00;82.60;;;;;;5070272;28;20304;-67
2023/04/14 12:37:37;;;;;;;;;;;16.90;90.90;;;;;;5067935;28;19916;-67
2023/04/14 12:40:05;;;;;;;;;;;16.70;83.60;;;;;;5067374;28;20079;-67
2023/04/14 12:42:48;;;;;;;;;;;16.80;90.60;;;;;;5068102;28;20695;-67
2023/04/14 12:45:15;;;;;;;;;;;17.00;83.00;;;;;;5068605;28;19920;-67
2023/04/14 12:47:51;;;;;;;;;;;17.10;80.00;;;;;;5069497;28;19924;-67
2023/04/14 12:50:22;;;;;;;;;;;17.30;83.70;;;;;;5068761;28;19916;-67
2023/04/14 12:52:48;;;;;;;;;;;17.40;83.50;;;;;;5070173;28;19963;-67
2023/04/14 12:55:21;;;;;;;;;;;17.70;80.50;;;;;;5071183;28;19924;-67
2023/04/14 12:57:47;;;;;;;;;;;18.30;85.40;;;;;;5069506;28;20023;-67
2023/04/14 13:00:13;;;;;;;;;;;18.90;78.00;;;;;;5068906;28;19947;-67
2023/04/14 13:02:39;;;;;;;;;;;18.50;65.60;;;;;;5068361;28;20066;-67
2023/04/14 13:05:04;;;;;;;;;;;17.90;72.30;;;;;;5069401;28;19977;-67
2023/04/14 13:07:31;;;;;;;;;;;18.50;70.90;;;;;;5068726;28;19920;-67
2023/04/14 13:09:57;;;;;;;;;;;19.10;75.40;;;;;;5068515;28;20078;-67
2023/04/14 13:12:23;;;;;;;;;;;19.60;72.70;;;;;;5068942;28;19916;-67
2023/04/14 13:14:49;;;;;;;;;;;19.90;76.60;;;;;;5091088;28;19920;-67
2023/04/14 13:17:15;;;;;;;;;;;19.70;76.90;;;;;;5097380;28;19999;-67
2023/04/14 13:19:41;;;;;;;;;;;19.90;70.00;;;;;;5096676;28;19966;-67
2023/04/14 13:22:06;;;;;;;;;;;19.60;77.60;;;;;;5097582;28;19913;-67
2023/04/14 13:24:32;;;;;;;;;;;19.60;81.40;;;;;;5097638;28;19924;-67
2023/04/14 13:26:58;;;;;;;;;;;19.30;81.90;;;;;;5097426;28;19912;-67
2023/04/14 13:29:24;;;;;;;;;;;18.30;73.30;;;;;;5097571;28;19913;-67
2023/04/14 13:31:50;;;;;;;;;;;18.20;72.40;;;;;;5097661;28;19912;-67
2023/04/14 13:34:15;;;;;;;;;;;18.00;75.10;;;;;;5097258;28;20288;-67
2023/04/14 13:36:41;;;;;;;;;;;17.60;79.10;;;;;;5097514;28;19918;-67
2023/04/14 13:39:07;;;;;;;;;;;17.20;78.40;;;;;;5097303;28;19913;-67
2023/04/14 13:41:33;;;;;;;;;;;16.80;82.50;;;;;;5097184;28;19916;-67
2023/04/14 13:43:58;;;;;;;;;;;16.30;77.70;;;;;;5097235;28;19973;-67
2023/04/14 13:46:24;;;;;;;;;;;16.10;83.40;;;;;;5097061;28;19957;-67
2023/04/14 13:48:50;;;;;;;;;;;15.70;84.50;;;;;;5096952;28;20306;-67
2023/04/14 13:51:16;;;;;;;;;;;15.40;79.60;;;;;;5097044;28;19946;-67
2023/04/14 13:53:41;;;;;;;;;;;15.30;86.00;;;;;;5096919;28;19916;-67
2023/04/14 13:56:08;;;;;;;;;;;15.10;89.30;;;;;;5096971;28;19920;-67
2023/04/14 13:58:36;;;;;;;;;;;14.90;88.80;;;;;;5096893;28;19987;-67
2023/04/14 14:01:11;;;;;;;;;;;14.70;84.40;;;;;;5096545;28;19975;-67
2023/04/14 14:03:37;;;;;;;;;;;14.60;89.00;;;;;;5096750;28;19916;-67
2023/04/14 14:06:03;;;;;;;;;;;14.30;89.10;;;;;;5096722;28;19916;-67
2023/04/14 14:08:29;;;;;;;;;;;14.40;89.30;;;;;;5096361;28;19916;-67
2023/04/14 14:10:55;;;;;;;;;;;14.40;87.80;;;;;;5096991;28;19915;-67
2023/04/14 14:13:21;;;;;;;;;;;14.20;91.90;;;;;;5096509;28;19912;-67
2023/04/14 14:15:47;;;;;;;;;;;14.20;93.10;;;;;;5096574;28;19912;-67
2023/04/14 14:18:13;;;;;;;;;;;14.20;93.90;;;;;;5096546;28;19923;-67